createdAt,value
2023-05-22T00:02:23.720Z,16.59
2023-05-22T00:05:30.716Z,16.57
2023-05-22T00:08:37.767Z,16.57
2023-05-22T00:11:43.626Z,16.57
2023-05-22T00:14:51.006Z,16.54
2023-05-22T00:17:57.017Z,16.53
2023-05-22T00:21:02.384Z,16.52
2023-05-22T00:24:08.483Z,16.51
2023-05-22T00:27:14.837Z,16.50
2023-05-22T00:30:22.133Z,16.49
2023-05-22T00:33:29.268Z,16.45
2023-05-22T00:36:34.661Z,16.45
2023-05-22T00:39:42.472Z,16.43
2023-05-22T00:42:50.384Z,16.39
2023-05-22T00:45:56.840Z,16.36
2023-05-22T00:49:03.225Z,16.31
2023-05-22T00:52:09.682Z,16.26
2023-05-22T00:55:17.605Z,16.22
2023-05-22T00:58:23.396Z,16.15
2023-05-22T01:01:30.567Z,16.10
2023-05-22T01:04:39.120Z,16.02
2023-05-22T01:07:45.322Z,15.97
2023-05-22T01:10:52.496Z,15.93
2023-05-22T01:14:39.925Z,15.95
2023-05-22T01:17:56.324Z,15.95
2023-05-22T01:21:30.111Z,15.96
2023-05-22T01:25:12.553Z,15.93
2023-05-22T01:28:51.485Z,15.94
2023-05-22T01:31:59.740Z,15.91
2023-05-22T01:35:12.591Z,15.82
2023-05-22T01:38:18.772Z,15.76
2023-05-22T01:41:24.326Z,15.74
2023-05-22T01:44:30.406Z,15.71
2023-05-22T01:47:36.692Z,15.70
2023-05-22T01:50:42.464Z,15.71
2023-05-22T01:53:52.787Z,15.68
2023-05-22T01:57:11.447Z,15.67
2023-05-22T02:00:25.623Z,15.62
2023-05-22T02:03:34.226Z,15.56
2023-05-22T02:06:41.017Z,15.53
2023-05-22T02:09:47.157Z,15.53
2023-05-22T02:12:53.229Z,15.51
2023-05-22T02:16:02.316Z,15.50
2023-05-22T02:19:15.898Z,15.50
2023-05-22T02:22:23.484Z,15.50
2023-05-22T02:25:30.208Z,15.49
2023-05-22T02:28:35.846Z,15.49
2023-05-22T02:31:41.152Z,15.48
2023-05-22T02:34:47.481Z,15.49
2023-05-22T02:37:53.886Z,15.54
2023-05-22T02:40:59.352Z,15.58
2023-05-22T02:44:04.456Z,15.61
2023-05-22T02:47:10.959Z,15.63
2023-05-22T02:50:17.242Z,15.67
2023-05-22T02:53:22.553Z,15.68
2023-05-22T02:56:29.441Z,15.69
2023-05-22T02:59:36.414Z,15.73
2023-05-22T03:02:43.981Z,15.76
2023-05-22T03:05:50.487Z,15.80
2023-05-22T03:08:56.749Z,15.86
2023-05-22T03:12:03.433Z,15.89
2023-05-22T03:15:11.927Z,15.95
2023-05-22T03:18:21.378Z,15.99
2023-05-22T03:21:28.369Z,16.04
2023-05-22T03:24:34.226Z,16.05
2023-05-22T03:27:39.992Z,16.05
2023-05-22T03:30:46.139Z,16.09
2023-05-22T03:33:56.040Z,16.12
2023-05-22T03:36:57.913Z,16.16
2023-05-22T03:40:05.044Z,16.24
2023-05-22T03:43:11.113Z,16.35
2023-05-22T03:46:17.336Z,16.43
2023-05-22T03:49:24.552Z,16.54
2023-05-22T03:52:29.751Z,16.71
2023-05-22T03:55:37.841Z,16.91
2023-05-22T03:58:45.556Z,17.06
2023-05-22T04:01:50.498Z,17.18
2023-05-22T04:04:57.407Z,17.26
2023-05-22T04:08:03.311Z,17.28
2023-05-22T04:11:10.179Z,17.30
2023-05-22T04:14:21.040Z,17.33
2023-05-22T04:17:26.738Z,17.44
2023-05-22T04:20:32.751Z,17.59
2023-05-22T04:23:42.520Z,17.59
2023-05-22T04:26:51.658Z,17.58
2023-05-22T04:29:58.544Z,17.58
2023-05-22T04:33:06.415Z,17.66
2023-05-22T04:36:12.690Z,17.76
2023-05-22T04:39:24.363Z,17.86
2023-05-22T04:42:30.546Z,17.97
2023-05-22T04:45:36.904Z,18.06
2023-05-22T04:48:44.498Z,18.18
2023-05-22T04:51:51.280Z,18.21
2023-05-22T04:55:00.662Z,18.28
2023-05-22T04:58:06.271Z,18.35
2023-05-22T05:01:13.171Z,18.37
2023-05-22T05:04:18.336Z,18.38
2023-05-22T05:07:25.118Z,18.35
2023-05-22T05:10:31.891Z,18.39
2023-05-22T05:13:38.619Z,18.36
2023-05-22T05:16:45.305Z,18.36
2023-05-22T05:19:51.346Z,18.39
2023-05-22T05:22:58.717Z,18.42
2023-05-22T05:26:05.400Z,18.49
2023-05-22T05:29:12.476Z,18.55
2023-05-22T05:32:23.463Z,18.66
2023-05-22T05:35:32.067Z,18.78
2023-05-22T05:38:40.769Z,18.88
2023-05-22T05:41:47.580Z,18.92
2023-05-22T05:44:53.840Z,19.01
2023-05-22T05:48:03.205Z,19.16
2023-05-22T05:51:18.301Z,19.26
2023-05-22T05:54:25.748Z,19.37
2023-05-22T05:57:33.447Z,19.48
2023-05-22T06:00:43.964Z,19.58
2023-05-22T06:03:52.409Z,19.67
2023-05-22T06:07:00.614Z,19.72
2023-05-22T06:10:08.654Z,19.89
2023-05-22T06:13:18.606Z,20.06
2023-05-22T06:16:24.264Z,20.20
2023-05-22T06:19:31.764Z,20.33
2023-05-22T06:22:40.096Z,20.40
2023-05-22T06:25:46.891Z,20.47
2023-05-22T06:28:53.175Z,20.55
2023-05-22T06:32:03.865Z,20.61
2023-05-22T06:35:10.566Z,20.66
2023-05-22T06:38:17.404Z,20.74
2023-05-22T06:41:24.977Z,20.77
2023-05-22T06:44:33.552Z,20.85
2023-05-22T06:47:39.934Z,21.07
2023-05-22T06:50:47.356Z,21.16
2023-05-22T06:53:53.047Z,21.14
2023-05-22T06:57:01.431Z,21.23
2023-05-22T07:00:10.340Z,21.27
2023-05-22T07:03:20.131Z,21.28
2023-05-22T07:06:41.219Z,21.33
2023-05-22T07:09:58.851Z,21.50
2023-05-22T07:13:05.430Z,21.73
2023-05-22T07:16:11.831Z,21.83
2023-05-22T07:19:20.533Z,22.01
2023-05-22T07:22:29.866Z,22.11
2023-05-22T07:25:36.897Z,22.20
2023-05-22T07:28:45.007Z,22.43
2023-05-22T07:31:52.288Z,22.66
2023-05-22T07:35:01.174Z,22.86
2023-05-22T07:38:08.771Z,22.94
2023-05-22T07:41:17.068Z,23.05
2023-05-22T07:44:23.095Z,23.14
2023-05-22T07:47:28.002Z,23.19
2023-05-22T07:50:34.780Z,23.23
2023-05-22T07:53:43.195Z,23.24
2023-05-22T07:56:49.082Z,23.42
2023-05-22T07:59:58.293Z,23.66
2023-05-22T08:03:06.637Z,23.77
2023-05-22T08:06:13.337Z,23.88
2023-05-22T08:09:20.813Z,24.03
2023-05-22T08:12:25.792Z,24.19
2023-05-22T08:15:30.865Z,24.40
2023-05-22T08:18:37.447Z,24.54
2023-05-22T08:21:44.706Z,24.50
2023-05-22T08:24:52.416Z,24.40
2023-05-22T08:28:03.100Z,24.47
2023-05-22T08:31:09.531Z,24.46
2023-05-22T08:34:21.199Z,24.40
2023-05-22T08:37:26.692Z,24.33
2023-05-22T08:40:32.122Z,24.26
2023-05-22T08:43:38.496Z,24.26
2023-05-22T08:46:46.645Z,24.16
2023-05-22T08:49:53.404Z,24.04
2023-05-22T08:53:09.727Z,23.97
2023-05-22T08:56:16.473Z,24.02
2023-05-22T08:59:21.381Z,24.10
2023-05-22T09:02:31.667Z,24.30
2023-05-22T09:05:38.267Z,24.39
2023-05-22T09:08:45.028Z,24.52
2023-05-22T09:11:51.015Z,24.51
2023-05-22T09:15:00.966Z,24.44
2023-05-22T09:18:06.800Z,24.53
2023-05-22T09:21:25.797Z,24.67
2023-05-22T09:24:24.632Z,24.79
2023-05-22T09:27:32.324Z,24.64
2023-05-22T09:30:39.881Z,24.65
2023-05-22T09:33:47.418Z,24.84
2023-05-22T09:36:53.770Z,24.92
2023-05-22T09:40:04.238Z,24.87
2023-05-22T09:43:11.593Z,24.78
2023-05-22T09:46:18.970Z,24.80
2023-05-22T09:49:25.602Z,24.89
2023-05-22T09:52:32.214Z,24.93
2023-05-22T09:55:38.487Z,25.01
2023-05-22T09:58:45.097Z,24.94
2023-05-22T10:01:54.148Z,24.86
2023-05-22T10:05:01.862Z,24.95
2023-05-22T10:08:12.488Z,25.22
2023-05-22T10:11:20.002Z,25.27
2023-05-22T10:14:27.356Z,25.17
2023-05-22T10:17:34.900Z,24.92
2023-05-22T10:20:42.237Z,24.75
2023-05-22T10:23:48.578Z,24.59
2023-05-22T10:26:55.229Z,24.59
2023-05-22T10:30:11.943Z,24.60
2023-05-22T10:33:36.411Z,24.65
2023-05-22T10:36:53.311Z,24.76
2023-05-22T10:40:22.852Z,25.14
2023-05-22T10:43:21.919Z,25.33
2023-05-22T10:46:14.680Z,25.50
2023-05-22T10:49:08.258Z,25.60
2023-05-22T10:51:55.267Z,25.63
2023-05-22T10:54:55.509Z,25.67
2023-05-22T10:57:48.735Z,25.61
2023-05-22T11:00:54.587Z,25.52
2023-05-22T11:04:24.340Z,25.48
2023-05-22T11:07:34.268Z,25.66
2023-05-22T11:11:04.220Z,25.76
2023-05-22T11:14:17.578Z,25.89
2023-05-22T11:17:24.868Z,25.72
2023-05-22T11:20:38.326Z,25.59
2023-05-22T11:23:47.955Z,25.73
2023-05-22T11:26:57.916Z,25.93
2023-05-22T11:30:05.530Z,25.99
2023-05-22T11:33:17.383Z,25.87
2023-05-22T11:36:23.760Z,25.89
2023-05-22T11:39:30.635Z,26.02
2023-05-22T11:42:35.680Z,26.10
2023-05-22T11:45:41.691Z,25.99
2023-05-22T11:48:51.269Z,26.04
2023-05-22T11:51:57.270Z,26.09
2023-05-22T11:55:08.333Z,26.04
2023-05-22T11:58:13.794Z,26.14
2023-05-22T12:01:19.537Z,26.34
2023-05-22T12:04:24.562Z,26.46
2023-05-22T12:07:29.940Z,26.51
2023-05-22T12:10:36.794Z,26.63
2023-05-22T12:13:43.158Z,26.68
2023-05-22T12:16:52.451Z,26.75
2023-05-22T12:19:59.332Z,26.60
2023-05-22T12:23:06.039Z,26.40
2023-05-22T12:26:23.888Z,26.31
2023-05-22T12:29:30.119Z,26.28
2023-05-22T12:32:37.322Z,26.36
2023-05-22T12:35:43.377Z,26.37
2023-05-22T12:38:49.489Z,26.31
2023-05-22T12:41:55.850Z,26.23
2023-05-22T12:45:02.467Z,26.08
2023-05-22T12:48:12.758Z,25.99
2023-05-22T12:51:20.086Z,25.85
2023-05-22T12:54:26.289Z,25.59
2023-05-22T12:57:55.392Z,25.44
2023-05-22T13:01:01.651Z,25.41
2023-05-22T13:04:15.179Z,25.40
2023-05-22T13:07:25.195Z,25.46
2023-05-22T13:10:30.402Z,25.42
2023-05-22T13:13:42.584Z,25.36
2023-05-22T13:16:50.872Z,25.28
2023-05-22T13:19:57.781Z,25.14
2023-05-22T13:23:05.615Z,25.11
2023-05-22T13:26:13.047Z,25.19
2023-05-22T13:29:23.177Z,25.23
2023-05-22T13:32:29.955Z,25.20
2023-05-22T13:35:36.302Z,25.09
2023-05-22T13:38:50.710Z,24.95
2023-05-22T13:41:56.894Z,24.75
2023-05-22T13:45:02.178Z,24.69
2023-05-22T13:48:07.968Z,24.69
2023-05-22T13:51:13.672Z,24.68
2023-05-22T13:54:23.256Z,24.60
2023-05-22T13:57:30.510Z,24.53
2023-05-22T14:00:38.453Z,24.37
2023-05-22T14:03:44.372Z,24.17
2023-05-22T14:06:51.170Z,24.00
2023-05-22T14:09:59.647Z,23.82
2023-05-22T14:13:06.773Z,23.67
2023-05-22T14:16:13.281Z,23.46
2023-05-22T14:19:19.125Z,23.24
2023-05-22T14:22:25.629Z,23.02
2023-05-22T14:25:32.051Z,22.80
2023-05-22T14:28:43.213Z,22.61
2023-05-22T14:32:00.922Z,22.40
2023-05-22T14:35:06.586Z,22.23
2023-05-22T14:38:12.139Z,22.00
2023-05-22T14:41:19.728Z,21.86
2023-05-22T14:44:27.024Z,21.75
2023-05-22T14:47:33.505Z,21.63
2023-05-22T14:50:38.210Z,21.57
2023-05-22T14:53:44.175Z,21.46
2023-05-22T14:56:49.991Z,21.31
2023-05-22T14:59:56.410Z,21.32
2023-05-22T15:03:03.782Z,21.24
2023-05-22T15:06:10.468Z,21.13
2023-05-22T15:09:17.656Z,21.10
2023-05-22T15:12:24.928Z,21.07
2023-05-22T15:15:30.617Z,21.06
2023-05-22T15:18:36.491Z,21.10
2023-05-22T15:21:42.917Z,21.15
2023-05-22T15:24:50.931Z,21.15
2023-05-22T15:27:56.439Z,21.19
2023-05-22T15:31:02.326Z,21.22
2023-05-22T15:34:10.582Z,21.17
2023-05-22T15:37:16.266Z,21.08
2023-05-22T15:40:26.031Z,20.94
2023-05-22T15:43:32.727Z,20.83
2023-05-22T15:46:37.801Z,20.82
2023-05-22T15:49:43.239Z,20.80
2023-05-22T15:52:49.231Z,20.71
2023-05-22T15:55:54.942Z,20.65
2023-05-22T15:59:01.524Z,20.59
2023-05-22T16:02:08.816Z,20.50
2023-05-22T16:05:15.776Z,20.35
2023-05-22T16:08:22.530Z,20.32
2023-05-22T16:11:29.443Z,20.32
2023-05-22T16:14:37.439Z,20.33
2023-05-22T16:17:45.382Z,20.29
2023-05-22T16:20:52.233Z,20.29
2023-05-22T16:23:57.171Z,20.26
2023-05-22T16:27:04.094Z,20.24
2023-05-22T16:30:10.715Z,20.24
2023-05-22T16:33:17.982Z,20.21
2023-05-22T16:36:26.368Z,20.14
2023-05-22T16:39:33.454Z,20.08
2023-05-22T16:42:39.918Z,20.02
2023-05-22T16:45:46.376Z,19.98
2023-05-22T16:48:52.385Z,19.97
2023-05-22T16:51:59.067Z,19.96
2023-05-22T16:55:05.568Z,19.91
2023-05-22T16:58:10.794Z,19.88
2023-05-22T17:01:17.564Z,19.84
2023-05-22T17:04:25.326Z,19.80
2023-05-22T17:07:31.841Z,19.80
2023-05-22T17:10:39.200Z,19.74
2023-05-22T17:13:43.929Z,19.73
2023-05-22T17:16:49.157Z,19.72
2023-05-22T17:19:55.211Z,19.67
2023-05-22T17:23:01.931Z,19.65
2023-05-22T17:26:07.981Z,19.63
2023-05-22T17:29:14.092Z,19.64
2023-05-22T17:32:22.786Z,19.62
2023-05-22T17:35:28.506Z,19.61
2023-05-22T17:38:33.019Z,19.58
2023-05-22T17:41:39.792Z,19.54
2023-05-22T17:44:45.820Z,19.51
2023-05-22T17:47:54.847Z,19.48
2023-05-22T17:51:01.754Z,19.44
2023-05-22T17:54:10.202Z,19.42
2023-05-22T17:57:15.813Z,19.40
2023-05-22T18:00:23.604Z,19.37
2023-05-22T18:03:31.043Z,19.35
2023-05-22T18:06:37.470Z,19.33
2023-05-22T18:09:43.832Z,19.31
2023-05-22T18:12:49.317Z,19.29
2023-05-22T18:15:57.643Z,19.27
2023-05-22T18:19:03.454Z,19.28
2023-05-22T18:22:08.780Z,19.29
2023-05-22T18:25:13.899Z,19.28
2023-05-22T18:28:21.840Z,19.24
2023-05-22T18:31:29.784Z,19.20
2023-05-22T18:34:37.107Z,19.14
2023-05-22T18:37:43.859Z,19.10
2023-05-22T18:40:50.081Z,19.07
2023-05-22T18:43:57.068Z,19.02
2023-05-22T18:47:02.384Z,18.96
2023-05-22T18:50:09.000Z,18.94
2023-05-22T18:53:15.970Z,18.91
2023-05-22T18:56:21.493Z,18.88
2023-05-22T18:59:29.325Z,18.85
2023-05-22T19:02:34.251Z,18.83
2023-05-22T19:05:42.110Z,18.78
2023-05-22T19:08:48.416Z,18.78
2023-05-22T19:11:53.943Z,18.78
2023-05-22T19:15:00.787Z,18.75
2023-05-22T19:18:08.398Z,18.76
2023-05-22T19:21:15.735Z,18.71
2023-05-22T19:24:21.994Z,18.69
2023-05-22T19:27:27.415Z,18.63
2023-05-22T19:30:33.997Z,18.60
2023-05-22T19:33:43.980Z,18.58
2023-05-22T19:36:51.615Z,18.56
2023-05-22T19:39:57.860Z,18.53
2023-05-22T19:43:02.723Z,18.52
2023-05-22T19:46:09.011Z,18.51
2023-05-22T19:49:16.304Z,18.52
2023-05-22T19:52:23.729Z,18.47
2023-05-22T19:55:29.387Z,18.42
2023-05-22T19:58:35.834Z,18.39
2023-05-22T20:01:43.118Z,18.35
2023-05-22T20:04:50.233Z,18.31
2023-05-22T20:07:56.879Z,18.30
2023-05-22T20:11:03.264Z,18.29
2023-05-22T20:14:11.598Z,18.27
2023-05-22T20:17:17.856Z,18.23
2023-05-22T20:20:25.276Z,18.22
2023-05-22T20:23:31.427Z,18.20
2023-05-22T20:26:38.157Z,18.21
2023-05-22T20:29:44.143Z,18.20
2023-05-22T20:32:50.545Z,18.20
2023-05-22T20:35:58.954Z,18.16
2023-05-22T20:39:06.707Z,18.09
2023-05-22T20:42:14.964Z,18.03
2023-05-22T20:45:22.493Z,18.01
2023-05-22T20:48:29.146Z,17.98
2023-05-22T20:51:37.122Z,17.93
2023-05-22T20:54:45.715Z,17.87
2023-05-22T20:57:51.616Z,17.82
2023-05-22T21:00:58.557Z,17.77
2023-05-22T21:04:06.108Z,17.77
2023-05-22T21:07:12.154Z,17.76
2023-05-22T21:10:19.971Z,17.76
2023-05-22T21:13:25.665Z,17.76
2023-05-22T21:16:32.520Z,17.79
2023-05-22T21:19:39.011Z,17.77
2023-05-22T21:22:44.502Z,17.75
2023-05-22T21:25:51.575Z,17.73
2023-05-22T21:28:58.823Z,17.71
2023-05-22T21:32:05.041Z,17.69
2023-05-22T21:35:10.386Z,17.65
2023-05-22T21:38:16.013Z,17.60
2023-05-22T21:41:22.392Z,17.56
2023-05-22T21:44:28.268Z,17.54
2023-05-22T21:47:35.451Z,17.53
2023-05-22T21:50:41.036Z,17.53
2023-05-22T21:53:47.533Z,17.47
2023-05-22T21:56:54.230Z,17.47
2023-05-22T21:59:59.726Z,17.45
2023-05-22T22:03:04.845Z,17.44
2023-05-22T22:06:12.149Z,17.41
2023-05-22T22:09:19.797Z,17.38
2023-05-22T22:12:26.069Z,17.33
2023-05-22T22:15:32.746Z,17.29
2023-05-22T22:18:40.663Z,17.27
2023-05-22T22:21:46.248Z,17.23
2023-05-22T22:24:52.573Z,17.18
2023-05-22T22:28:00.878Z,17.15
2023-05-22T22:31:06.158Z,17.12
2023-05-22T22:34:12.590Z,17.12
2023-05-22T22:37:18.667Z,17.12
2023-05-22T22:40:26.845Z,17.11
2023-05-22T22:43:33.953Z,17.11
2023-05-22T22:46:40.179Z,17.05
2023-05-22T22:49:46.135Z,16.98
2023-05-22T22:52:53.046Z,16.92
2023-05-22T22:55:58.570Z,16.90
2023-05-22T22:59:06.209Z,16.87
2023-05-22T23:02:11.996Z,16.85
2023-05-22T23:05:11.849Z,16.81
2023-05-22T23:08:06.930Z,16.75
2023-05-22T23:11:12.207Z,16.70
2023-05-22T23:14:19.520Z,16.66
2023-05-22T23:17:27.746Z,16.63
2023-05-22T23:20:33.375Z,16.59
2023-05-22T23:23:38.822Z,16.56
2023-05-22T23:26:44.332Z,16.54
2023-05-22T23:29:50.043Z,16.51
2023-05-22T23:32:57.485Z,16.47
2023-05-22T23:36:03.602Z,16.39
2023-05-22T23:39:08.633Z,16.33
2023-05-22T23:42:15.642Z,16.27
2023-05-22T23:45:21.790Z,16.24
2023-05-22T23:48:27.202Z,16.16
2023-05-22T23:51:32.224Z,16.10
2023-05-22T23:54:38.912Z,16.05
2023-05-22T23:57:46.348Z,15.99
